sensor_id;sensor_type;location;lat;lon;timestamp;P1;durP1;ratioP1;P2;durP2;ratioP2
12288;SDS011;6207;49.308;7.336;2023-03-01T00:01:26;15.13;;;14.03;;
12288;SDS011;6207;49.308;7.336;2023-03-01T00:03:55;15.63;;;14.43;;
12288;SDS011;6207;49.308;7.336;2023-03-01T00:06:22;16.80;;;15.50;;
12288;SDS011;6207;49.308;7.336;2023-03-01T00:08:50;15.80;;;14.27;;
12288;SDS011;6207;49.308;7.336;2023-03-01T00:11:27;14.20;;;13.20;;
12288;SDS011;6207;49.308;7.336;2023-03-01T00:13:56;16.83;;;15.43;;
12288;SDS011;6207;49.308;7.336;2023-03-01T00:16:29;15.13;;;13.93;;
12288;SDS011;6207;49.308;7.336;2023-03-01T00:18:59;15.07;;;13.80;;
12288;SDS011;6207;49.308;7.336;2023-03-01T00:21:27;14.90;;;13.67;;
12288;SDS011;6207;49.308;7.336;2023-03-01T00:23:54;16.03;;;14.83;;
12288;SDS011;6207;49.308;7.336;2023-03-01T00:26:22;15.67;;;14.43;;
12288;SDS011;6207;49.308;7.336;2023-03-01T00:28:49;14.83;;;13.63;;
12288;SDS011;6207;49.308;7.336;2023-03-01T00:31:18;15.63;;;14.17;;
12288;SDS011;6207;49.308;7.336;2023-03-01T00:33:48;15.70;;;14.23;;
12288;SDS011;6207;49.308;7.336;2023-03-01T00:36:15;15.83;;;14.57;;
12288;SDS011;6207;49.308;7.336;2023-03-01T00:38:43;17.33;;;15.90;;
12288;SDS011;6207;49.308;7.336;2023-03-01T00:41:12;15.23;;;14.03;;
12288;SDS011;6207;49.308;7.336;2023-03-01T00:43:40;14.63;;;13.63;;
12288;SDS011;6207;49.308;7.336;2023-03-01T00:46:18;15.87;;;14.57;;
12288;SDS011;6207;49.308;7.336;2023-03-01T00:48:47;15.40;;;14.00;;
12288;SDS011;6207;49.308;7.336;2023-03-01T00:51:24;15.20;;;14.10;;
12288;SDS011;6207;49.308;7.336;2023-03-01T00:53:54;14.60;;;13.37;;
12288;SDS011;6207;49.308;7.336;2023-03-01T00:56:22;14.80;;;13.70;;
12288;SDS011;6207;49.308;7.336;2023-03-01T00:58:49;14.47;;;13.27;;
12288;SDS011;6207;49.308;7.336;2023-03-01T01:01:21;15.47;;;14.37;;
12288;SDS011;6207;49.308;7.336;2023-03-01T01:03:54;15.50;;;14.13;;
12288;SDS011;6207;49.308;7.336;2023-03-01T01:06:24;15.03;;;13.90;;
12288;SDS011;6207;49.308;7.336;2023-03-01T01:08:56;15.17;;;14.07;;
12288;SDS011;6207;49.308;7.336;2023-03-01T01:11:24;16.23;;;14.83;;
12288;SDS011;6207;49.308;7.336;2023-03-01T01:13:52;15.53;;;14.23;;
12288;SDS011;6207;49.308;7.336;2023-03-01T01:16:21;15.20;;;14.10;;
12288;SDS011;6207;49.308;7.336;2023-03-01T01:18:49;14.23;;;13.17;;
12288;SDS011;6207;49.308;7.336;2023-03-01T01:21:18;14.33;;;13.33;;
12288;SDS011;6207;49.308;7.336;2023-03-01T01:23:47;15.33;;;14.13;;
12288;SDS011;6207;49.308;7.336;2023-03-01T01:26:21;15.27;;;14.07;;
12288;SDS011;6207;49.308;7.336;2023-03-01T01:28:50;15.70;;;14.50;;
12288;SDS011;6207;49.308;7.336;2023-03-01T01:31:18;15.27;;;14.13;;
12288;SDS011;6207;49.308;7.336;2023-03-01T01:33:45;15.80;;;14.57;;
12288;SDS011;6207;49.308;7.336;2023-03-01T01:36:12;15.53;;;14.23;;
12288;SDS011;6207;49.308;7.336;2023-03-01T01:38:39;15.50;;;14.20;;
12288;SDS011;6207;49.308;7.336;2023-03-01T01:41:06;17.00;;;15.47;;
12288;SDS011;6207;49.308;7.336;2023-03-01T01:43:34;15.80;;;14.60;;
12288;SDS011;6207;49.308;7.336;2023-03-01T01:46:25;16.37;;;14.87;;
12288;SDS011;6207;49.308;7.336;2023-03-01T01:49:00;14.63;;;13.53;;
12288;SDS011;6207;49.308;7.336;2023-03-01T01:51:32;15.43;;;14.20;;
12288;SDS011;6207;49.308;7.336;2023-03-01T01:54:13;15.93;;;14.60;;
12288;SDS011;6207;49.308;7.336;2023-03-01T01:56:45;15.30;;;14.10;;
12288;SDS011;6207;49.308;7.336;2023-03-01T01:59:15;18.40;;;16.80;;
12288;SDS011;6207;49.308;7.336;2023-03-01T02:01:42;16.93;;;15.43;;
12288;SDS011;6207;49.308;7.336;2023-03-01T02:04:09;14.80;;;13.73;;
12288;SDS011;6207;49.308;7.336;2023-03-01T02:06:37;15.60;;;14.40;;
12288;SDS011;6207;49.308;7.336;2023-03-01T02:09:11;15.80;;;14.60;;
12288;SDS011;6207;49.308;7.336;2023-03-01T02:11:40;15.67;;;14.57;;
12288;SDS011;6207;49.308;7.336;2023-03-01T02:14:07;16.07;;;14.67;;
12288;SDS011;6207;49.308;7.336;2023-03-01T02:16:34;16.70;;;15.10;;
12288;SDS011;6207;49.308;7.336;2023-03-01T02:19:01;15.77;;;14.50;;
12288;SDS011;6207;49.308;7.336;2023-03-01T02:24:45;16.27;;;14.97;;
12288;SDS011;6207;49.308;7.336;2023-03-01T02:27:23;16.03;;;14.63;;
12288;SDS011;6207;49.308;7.336;2023-03-01T02:29:57;16.33;;;14.93;;
12288;SDS011;6207;49.308;7.336;2023-03-01T02:32:24;17.17;;;15.47;;
12288;SDS011;6207;49.308;7.336;2023-03-01T02:34:52;16.53;;;15.03;;
12288;SDS011;6207;49.308;7.336;2023-03-01T02:37:20;15.27;;;14.20;;
12288;SDS011;6207;49.308;7.336;2023-03-01T02:39:53;16.07;;;14.67;;
12288;SDS011;6207;49.308;7.336;2023-03-01T02:42:26;15.53;;;14.23;;
12288;SDS011;6207;49.308;7.336;2023-03-01T02:44:56;15.80;;;14.50;;
12288;SDS011;6207;49.308;7.336;2023-03-01T02:47:23;16.67;;;15.17;;
12288;SDS011;6207;49.308;7.336;2023-03-01T02:49:50;16.13;;;14.73;;
12288;SDS011;6207;49.308;7.336;2023-03-01T02:52:32;16.37;;;14.87;;
12288;SDS011;6207;49.308;7.336;2023-03-01T02:55:10;15.50;;;14.30;;
12288;SDS011;6207;49.308;7.336;2023-03-01T02:57:40;16.20;;;14.80;;
12288;SDS011;6207;49.308;7.336;2023-03-01T03:00:14;15.93;;;14.37;;
12288;SDS011;6207;49.308;7.336;2023-03-01T03:02:49;15.60;;;14.10;;
12288;SDS011;6207;49.308;7.336;2023-03-01T03:05:19;17.57;;;16.00;;
12288;SDS011;6207;49.308;7.336;2023-03-01T03:07:48;14.10;;;12.90;;
12288;SDS011;6207;49.308;7.336;2023-03-01T03:10:23;16.43;;;14.83;;
12288;SDS011;6207;49.308;7.336;2023-03-01T03:12:56;16.30;;;14.80;;
12288;SDS011;6207;49.308;7.336;2023-03-01T03:15:25;16.47;;;14.87;;
12288;SDS011;6207;49.308;7.336;2023-03-01T03:17:53;18.50;;;16.60;;
12288;SDS011;6207;49.308;7.336;2023-03-01T03:20:22;17.60;;;16.00;;
12288;SDS011;6207;49.308;7.336;2023-03-01T03:22:51;17.30;;;15.53;;
12288;SDS011;6207;49.308;7.336;2023-03-01T03:25:20;17.73;;;15.90;;
12288;SDS011;6207;49.308;7.336;2023-03-01T03:27:49;20.77;;;18.87;;
12288;SDS011;6207;49.308;7.336;2023-03-01T03:30:24;16.83;;;15.10;;
12288;SDS011;6207;49.308;7.336;2023-03-01T03:32:53;15.73;;;14.33;;
12288;SDS011;6207;49.308;7.336;2023-03-01T03:35:24;15.47;;;14.17;;
12288;SDS011;6207;49.308;7.336;2023-03-01T03:38:03;15.67;;;14.40;;
12288;SDS011;6207;49.308;7.336;2023-03-01T03:40:37;17.50;;;15.73;;
12288;SDS011;6207;49.308;7.336;2023-03-01T03:43:09;17.67;;;15.97;;
12288;SDS011;6207;49.308;7.336;2023-03-01T03:45:41;16.47;;;14.97;;
12288;SDS011;6207;49.308;7.336;2023-03-01T03:48:10;16.73;;;15.10;;
12288;SDS011;6207;49.308;7.336;2023-03-01T03:50:38;15.87;;;14.57;;
12288;SDS011;6207;49.308;7.336;2023-03-01T03:53:07;17.17;;;15.63;;
12288;SDS011;6207;49.308;7.336;2023-03-01T03:55:36;19.03;;;17.10;;
12288;SDS011;6207;49.308;7.336;2023-03-01T03:58:06;20.13;;;18.13;;
12288;SDS011;6207;49.308;7.336;2023-03-01T04:00:34;22.80;;;18.10;;
12288;SDS011;6207;49.308;7.336;2023-03-01T04:03:10;16.47;;;14.77;;
12288;SDS011;6207;49.308;7.336;2023-03-01T04:05:38;16.83;;;15.33;;
12288;SDS011;6207;49.308;7.336;2023-03-01T04:08:07;16.87;;;14.23;;
12288;SDS011;6207;49.308;7.336;2023-03-01T04:10:39;22.33;;;19.80;;
12288;SDS011;6207;49.308;7.336;2023-03-01T04:13:12;18.13;;;16.30;;
12288;SDS011;6207;49.308;7.336;2023-03-01T04:15:40;19.87;;;17.77;;
12288;SDS011;6207;49.308;7.336;2023-03-01T04:18:10;18.60;;;15.97;;
12288;SDS011;6207;49.308;7.336;2023-03-01T04:20:39;16.60;;;15.07;;
12288;SDS011;6207;49.308;7.336;2023-03-01T04:23:07;17.17;;;15.17;;
12288;SDS011;6207;49.308;7.336;2023-03-01T04:25:57;16.83;;;15.13;;
12288;SDS011;6207;49.308;7.336;2023-03-01T04:28:29;17.97;;;16.10;;
12288;SDS011;6207;49.308;7.336;2023-03-01T04:31:02;17.07;;;15.30;;
12288;SDS011;6207;49.308;7.336;2023-03-01T04:36:21;17.43;;;15.87;;
12288;SDS011;6207;49.308;7.336;2023-03-01T04:38:50;17.43;;;15.80;;
12288;SDS011;6207;49.308;7.336;2023-03-01T04:41:17;17.23;;;15.47;;
12288;SDS011;6207;49.308;7.336;2023-03-01T04:43:46;18.57;;;16.73;;
12288;SDS011;6207;49.308;7.336;2023-03-01T04:46:14;17.90;;;16.10;;
12288;SDS011;6207;49.308;7.336;2023-03-01T04:48:43;16.73;;;15.13;;
12288;SDS011;6207;49.308;7.336;2023-03-01T04:51:10;17.80;;;16.10;;
12288;SDS011;6207;49.308;7.336;2023-03-01T04:53:40;17.60;;;15.77;;
12288;SDS011;6207;49.308;7.336;2023-03-01T04:56:08;17.57;;;15.90;;
12288;SDS011;6207;49.308;7.336;2023-03-01T04:58:35;18.40;;;16.00;;
12288;SDS011;6207;49.308;7.336;2023-03-01T05:01:07;17.67;;;16.00;;
12288;SDS011;6207;49.308;7.336;2023-03-01T05:03:42;20.07;;;16.50;;
12288;SDS011;6207;49.308;7.336;2023-03-01T05:06:10;18.43;;;16.50;;
12288;SDS011;6207;49.308;7.336;2023-03-01T05:08:38;18.70;;;16.90;;
12288;SDS011;6207;49.308;7.336;2023-03-01T05:11:05;19.17;;;17.20;;
12288;SDS011;6207;49.308;7.336;2023-03-01T05:13:35;18.57;;;16.63;;
12288;SDS011;6207;49.308;7.336;2023-03-01T05:16:03;17.70;;;15.90;;
12288;SDS011;6207;49.308;7.336;2023-03-01T05:18:31;15.33;;;13.90;;
12288;SDS011;6207;49.308;7.336;2023-03-01T05:21:04;18.57;;;16.97;;
12288;SDS011;6207;49.308;7.336;2023-03-01T05:23:35;16.80;;;15.20;;
12288;SDS011;6207;49.308;7.336;2023-03-01T05:26:02;19.27;;;17.47;;
12288;SDS011;6207;49.308;7.336;2023-03-01T05:28:36;19.47;;;17.63;;
12288;SDS011;6207;49.308;7.336;2023-03-01T05:31:04;16.30;;;14.70;;
12288;SDS011;6207;49.308;7.336;2023-03-01T05:33:39;23.03;;;18.47;;
12288;SDS011;6207;49.308;7.336;2023-03-01T05:36:07;19.63;;;17.73;;
12288;SDS011;6207;49.308;7.336;2023-03-01T05:38:35;18.93;;;16.90;;
12288;SDS011;6207;49.308;7.336;2023-03-01T05:41:02;22.80;;;19.30;;
12288;SDS011;6207;49.308;7.336;2023-03-01T05:43:32;18.80;;;17.07;;
12288;SDS011;6207;49.308;7.336;2023-03-01T05:46:01;20.93;;;18.73;;
12288;SDS011;6207;49.308;7.336;2023-03-01T05:48:28;20.07;;;17.93;;
12288;SDS011;6207;49.308;7.336;2023-03-01T05:50:54;21.47;;;17.53;;
12288;SDS011;6207;49.308;7.336;2023-03-01T05:53:26;18.37;;;16.73;;
12288;SDS011;6207;49.308;7.336;2023-03-01T05:55:52;19.90;;;17.97;;
12288;SDS011;6207;49.308;7.336;2023-03-01T05:58:19;18.63;;;16.73;;
12288;SDS011;6207;49.308;7.336;2023-03-01T06:00:46;19.80;;;17.80;;
12288;SDS011;6207;49.308;7.336;2023-03-01T06:03:15;18.30;;;16.70;;
12288;SDS011;6207;49.308;7.336;2023-03-01T06:05:43;20.50;;;18.10;;
12288;SDS011;6207;49.308;7.336;2023-03-01T06:08:11;18.43;;;16.57;;
12288;SDS011;6207;49.308;7.336;2023-03-01T06:10:38;17.93;;;16.27;;
12288;SDS011;6207;49.308;7.336;2023-03-01T06:13:05;19.20;;;17.33;;
12288;SDS011;6207;49.308;7.336;2023-03-01T06:15:32;17.77;;;16.17;;
12288;SDS011;6207;49.308;7.336;2023-03-01T06:17:58;19.43;;;17.33;;
12288;SDS011;6207;49.308;7.336;2023-03-01T06:20:26;20.23;;;18.27;;
12288;SDS011;6207;49.308;7.336;2023-03-01T06:22:54;19.53;;;17.43;;
12288;SDS011;6207;49.308;7.336;2023-03-01T06:25:22;20.63;;;17.83;;
12288;SDS011;6207;49.308;7.336;2023-03-01T06:27:50;19.90;;;17.93;;
12288;SDS011;6207;49.308;7.336;2023-03-01T06:30:19;19.10;;;17.13;;
12288;SDS011;6207;49.308;7.336;2023-03-01T06:32:46;19.93;;;17.90;;
12288;SDS011;6207;49.308;7.336;2023-03-01T06:35:13;20.30;;;18.07;;
12288;SDS011;6207;49.308;7.336;2023-03-01T06:37:44;19.37;;;17.63;;
12288;SDS011;6207;49.308;7.336;2023-03-01T06:40:11;24.17;;;18.70;;
12288;SDS011;6207;49.308;7.336;2023-03-01T06:42:40;20.47;;;17.83;;
12288;SDS011;6207;49.308;7.336;2023-03-01T06:45:09;19.43;;;17.43;;
12288;SDS011;6207;49.308;7.336;2023-03-01T06:47:36;19.47;;;17.50;;
12288;SDS011;6207;49.308;7.336;2023-03-01T06:50:03;18.43;;;16.67;;
12288;SDS011;6207;49.308;7.336;2023-03-01T06:52:30;18.67;;;16.63;;
12288;SDS011;6207;49.308;7.336;2023-03-01T06:54:57;19.67;;;17.70;;
12288;SDS011;6207;49.308;7.336;2023-03-01T06:57:24;19.40;;;16.90;;
12288;SDS011;6207;49.308;7.336;2023-03-01T06:59:51;22.47;;;20.27;;
12288;SDS011;6207;49.308;7.336;2023-03-01T07:02:18;19.07;;;17.37;;
12288;SDS011;6207;49.308;7.336;2023-03-01T07:04:44;19.77;;;17.67;;
12288;SDS011;6207;49.308;7.336;2023-03-01T07:07:11;19.00;;;17.17;;
12288;SDS011;6207;49.308;7.336;2023-03-01T07:09:38;19.43;;;17.53;;
12288;SDS011;6207;49.308;7.336;2023-03-01T07:12:04;19.33;;;17.40;;
12288;SDS011;6207;49.308;7.336;2023-03-01T07:14:31;19.67;;;17.87;;
12288;SDS011;6207;49.308;7.336;2023-03-01T07:16:58;20.53;;;18.43;;
12288;SDS011;6207;49.308;7.336;2023-03-01T07:19:25;19.20;;;17.40;;
12288;SDS011;6207;49.308;7.336;2023-03-01T07:21:52;18.03;;;16.43;;
12288;SDS011;6207;49.308;7.336;2023-03-01T07:24:18;19.07;;;17.03;;
12288;SDS011;6207;49.308;7.336;2023-03-01T07:26:48;19.63;;;17.93;;
12288;SDS011;6207;49.308;7.336;2023-03-01T07:29:16;20.27;;;18.27;;
12288;SDS011;6207;49.308;7.336;2023-03-01T07:31:43;22.80;;;20.73;;
12288;SDS011;6207;49.308;7.336;2023-03-01T07:34:10;19.57;;;17.67;;
12288;SDS011;6207;49.308;7.336;2023-03-01T07:36:37;20.40;;;18.40;;
12288;SDS011;6207;49.308;7.336;2023-03-01T07:39:05;20.30;;;18.57;;
12288;SDS011;6207;49.308;7.336;2023-03-01T07:41:32;19.47;;;17.77;;
12288;SDS011;6207;49.308;7.336;2023-03-01T07:43:59;20.53;;;18.70;;
12288;SDS011;6207;49.308;7.336;2023-03-01T07:46:25;20.33;;;18.60;;
12288;SDS011;6207;49.308;7.336;2023-03-01T07:48:52;20.47;;;18.67;;
12288;SDS011;6207;49.308;7.336;2023-03-01T07:51:19;22.73;;;18.83;;
12288;SDS011;6207;49.308;7.336;2023-03-01T07:53:47;19.73;;;17.93;;
12288;SDS011;6207;49.308;7.336;2023-03-01T07:56:14;20.23;;;18.33;;
12288;SDS011;6207;49.308;7.336;2023-03-01T07:58:45;20.80;;;18.90;;
12288;SDS011;6207;49.308;7.336;2023-03-01T08:01:15;21.30;;;19.13;;
12288;SDS011;6207;49.308;7.336;2023-03-01T08:03:44;19.13;;;17.43;;
12288;SDS011;6207;49.308;7.336;2023-03-01T08:06:11;20.47;;;18.57;;
12288;SDS011;6207;49.308;7.336;2023-03-01T08:08:39;21.30;;;19.50;;
12288;SDS011;6207;49.308;7.336;2023-03-01T08:11:06;20.50;;;18.70;;
12288;SDS011;6207;49.308;7.336;2023-03-01T08:13:35;21.07;;;19.07;;
12288;SDS011;6207;49.308;7.336;2023-03-01T08:16:03;21.57;;;19.10;;
12288;SDS011;6207;49.308;7.336;2023-03-01T08:18:32;25.90;;;23.77;;
12288;SDS011;6207;49.308;7.336;2023-03-01T08:21:05;20.53;;;18.70;;
12288;SDS011;6207;49.308;7.336;2023-03-01T08:23:34;21.30;;;19.27;;
12288;SDS011;6207;49.308;7.336;2023-03-01T08:26:08;21.03;;;18.83;;
12288;SDS011;6207;49.308;7.336;2023-03-01T08:28:42;21.07;;;19.17;;
12288;SDS011;6207;49.308;7.336;2023-03-01T08:31:13;23.50;;;21.10;;
12288;SDS011;6207;49.308;7.336;2023-03-01T08:33:53;20.70;;;18.90;;
12288;SDS011;6207;49.308;7.336;2023-03-01T08:36:26;22.30;;;20.30;;
12288;SDS011;6207;49.308;7.336;2023-03-01T08:38:55;20.70;;;18.80;;
12288;SDS011;6207;49.308;7.336;2023-03-01T08:41:22;22.43;;;20.20;;
12288;SDS011;6207;49.308;7.336;2023-03-01T08:43:49;22.63;;;20.50;;
12288;SDS011;6207;49.308;7.336;2023-03-01T08:46:16;20.07;;;18.37;;
12288;SDS011;6207;49.308;7.336;2023-03-01T08:48:43;20.97;;;19.13;;
12288;SDS011;6207;49.308;7.336;2023-03-01T08:51:17;18.87;;;17.47;;
12288;SDS011;6207;49.308;7.336;2023-03-01T08:53:45;24.07;;;19.73;;
12288;SDS011;6207;49.308;7.336;2023-03-01T08:56:12;22.07;;;20.17;;
12288;SDS011;6207;49.308;7.336;2023-03-01T08:58:40;21.37;;;19.47;;
12288;SDS011;6207;49.308;7.336;2023-03-01T09:01:09;19.87;;;18.27;;
12288;SDS011;6207;49.308;7.336;2023-03-01T09:03:38;20.70;;;18.93;;
12288;SDS011;6207;49.308;7.336;2023-03-01T09:06:06;21.67;;;19.47;;
12288;SDS011;6207;49.308;7.336;2023-03-01T09:08:34;22.77;;;20.77;;
12288;SDS011;6207;49.308;7.336;2023-03-01T09:11:02;22.07;;;20.07;;
12288;SDS011;6207;49.308;7.336;2023-03-01T09:13:29;23.17;;;21.20;;
12288;SDS011;6207;49.308;7.336;2023-03-01T09:16:00;21.87;;;20.00;;
12288;SDS011;6207;49.308;7.336;2023-03-01T09:18:28;22.47;;;20.57;;
12288;SDS011;6207;49.308;7.336;2023-03-01T09:24:05;21.43;;;19.47;;
12288;SDS011;6207;49.308;7.336;2023-03-01T09:26:33;21.70;;;19.57;;
12288;SDS011;6207;49.308;7.336;2023-03-01T09:28:59;22.17;;;20.17;;
12288;SDS011;6207;49.308;7.336;2023-03-01T09:31:26;23.03;;;20.93;;
12288;SDS011;6207;49.308;7.336;2023-03-01T09:33:53;22.33;;;20.33;;
12288;SDS011;6207;49.308;7.336;2023-03-01T09:36:22;19.87;;;18.37;;
12288;SDS011;6207;49.308;7.336;2023-03-01T09:38:51;22.13;;;20.10;;
12288;SDS011;6207;49.308;7.336;2023-03-01T09:44:26;21.37;;;19.57;;
12288;SDS011;6207;49.308;7.336;2023-03-01T09:47:04;22.53;;;20.53;;
12288;SDS011;6207;49.308;7.336;2023-03-01T09:49:35;22.30;;;20.20;;
12288;SDS011;6207;49.308;7.336;2023-03-01T09:54:46;21.73;;;19.90;;
12288;SDS011;6207;49.308;7.336;2023-03-01T09:57:21;19.37;;;17.77;;
12288;SDS011;6207;49.308;7.336;2023-03-01T10:00:00;20.93;;;19.13;;
12288;SDS011;6207;49.308;7.336;2023-03-01T10:02:51;21.47;;;19.67;;
12288;SDS011;6207;49.308;7.336;2023-03-01T10:09:13;23.07;;;21.07;;
12288;SDS011;6207;49.308;7.336;2023-03-01T10:11:47;20.63;;;18.63;;
12288;SDS011;6207;49.308;7.336;2023-03-01T10:17:14;21.90;;;18.53;;
12288;SDS011;6207;49.308;7.336;2023-03-01T10:19:54;22.93;;;20.90;;
12288;SDS011;6207;49.308;7.336;2023-03-01T10:22:29;21.97;;;20.10;;
12288;SDS011;6207;49.308;7.336;2023-03-01T10:24:58;21.97;;;20.03;;
12288;SDS011;6207;49.308;7.336;2023-03-01T10:27:38;22.23;;;20.03;;
12288;SDS011;6207;49.308;7.336;2023-03-01T10:30:21;32.10;;;22.33;;
12288;SDS011;6207;49.308;7.336;2023-03-01T10:32:58;23.23;;;21.27;;
12288;SDS011;6207;49.308;7.336;2023-03-01T10:35:28;23.53;;;21.43;;
12288;SDS011;6207;49.308;7.336;2023-03-01T10:38:06;22.33;;;20.30;;
12288;SDS011;6207;49.308;7.336;2023-03-01T10:40:41;23.00;;;21.03;;
12288;SDS011;6207;49.308;7.336;2023-03-01T10:43:57;23.90;;;22.00;;
12288;SDS011;6207;49.308;7.336;2023-03-01T10:49:07;21.67;;;19.67;;
12288;SDS011;6207;49.308;7.336;2023-03-01T10:51:42;21.80;;;19.90;;
12288;SDS011;6207;49.308;7.336;2023-03-01T10:54:20;22.17;;;20.27;;
12288;SDS011;6207;49.308;7.336;2023-03-01T10:56:54;22.67;;;20.63;;
12288;SDS011;6207;49.308;7.336;2023-03-01T10:59:30;23.93;;;21.93;;
12288;SDS011;6207;49.308;7.336;2023-03-01T11:02:20;22.23;;;20.33;;
12288;SDS011;6207;49.308;7.336;2023-03-01T11:04:56;22.77;;;20.77;;
12288;SDS011;6207;49.308;7.336;2023-03-01T11:07:51;22.43;;;20.50;;
12288;SDS011;6207;49.308;7.336;2023-03-01T11:10:20;20.63;;;18.93;;
12288;SDS011;6207;49.308;7.336;2023-03-01T11:13:08;22.90;;;20.70;;
12288;SDS011;6207;49.308;7.336;2023-03-01T11:15:58;26.70;;;24.37;;
12288;SDS011;6207;49.308;7.336;2023-03-01T11:18:37;24.13;;;22.03;;
12288;SDS011;6207;49.308;7.336;2023-03-01T11:21:13;22.87;;;20.77;;
12288;SDS011;6207;49.308;7.336;2023-03-01T11:23:41;22.83;;;20.73;;
12288;SDS011;6207;49.308;7.336;2023-03-01T11:26:09;21.27;;;19.40;;
12288;SDS011;6207;49.308;7.336;2023-03-01T11:28:38;21.13;;;19.23;;
12288;SDS011;6207;49.308;7.336;2023-03-01T11:31:09;20.77;;;18.10;;
12288;SDS011;6207;49.308;7.336;2023-03-01T11:33:43;21.70;;;19.73;;
12288;SDS011;6207;49.308;7.336;2023-03-01T11:39:02;21.37;;;19.47;;
12288;SDS011;6207;49.308;7.336;2023-03-01T11:41:43;23.33;;;21.33;;
12288;SDS011;6207;49.308;7.336;2023-03-01T11:44:23;21.90;;;20.00;;
12288;SDS011;6207;49.308;7.336;2023-03-01T11:47:09;18.73;;;17.27;;
12288;SDS011;6207;49.308;7.336;2023-03-01T11:52:21;20.47;;;18.67;;
12288;SDS011;6207;49.308;7.336;2023-03-01T12:06:55;22.33;;;20.30;;
12288;SDS011;6207;49.308;7.336;2023-03-01T12:17:41;21.37;;;19.63;;
12288;SDS011;6207;49.308;7.336;2023-03-01T12:23:15;21.23;;;19.23;;
12288;SDS011;6207;49.308;7.336;2023-03-01T12:28:50;20.73;;;19.13;;
12288;SDS011;6207;49.308;7.336;2023-03-01T12:31:50;24.43;;;22.33;;
12288;SDS011;6207;49.308;7.336;2023-03-01T12:37:25;20.50;;;18.63;;
12288;SDS011;6207;49.308;7.336;2023-03-01T12:48:24;22.53;;;20.50;;
12288;SDS011;6207;49.308;7.336;2023-03-01T12:50:57;26.37;;;23.93;;
12288;SDS011;6207;49.308;7.336;2023-03-01T12:53:39;26.70;;;24.43;;
12288;SDS011;6207;49.308;7.336;2023-03-01T12:56:32;20.50;;;18.90;;
12288;SDS011;6207;49.308;7.336;2023-03-01T13:04:52;23.57;;;21.53;;
12288;SDS011;6207;49.308;7.336;2023-03-01T13:08:14;19.90;;;18.40;;
12288;SDS011;6207;49.308;7.336;2023-03-01T13:10:49;21.40;;;19.57;;
12288;SDS011;6207;49.308;7.336;2023-03-01T13:13:21;21.17;;;19.17;;
12288;SDS011;6207;49.308;7.336;2023-03-01T13:15:52;23.30;;;21.27;;
12288;SDS011;6207;49.308;7.336;2023-03-01T13:20:48;21.63;;;19.47;;
12288;SDS011;6207;49.308;7.336;2023-03-01T13:31:05;24.03;;;21.73;;
12288;SDS011;6207;49.308;7.336;2023-03-01T13:33:41;22.70;;;20.80;;
12288;SDS011;6207;49.308;7.336;2023-03-01T13:38:58;21.53;;;19.73;;
12288;SDS011;6207;49.308;7.336;2023-03-01T13:49:48;20.73;;;18.70;;
12288;SDS011;6207;49.308;7.336;2023-03-01T13:52:35;19.90;;;18.20;;
12288;SDS011;6207;49.308;7.336;2023-03-01T13:55:03;23.60;;;21.53;;
12288;SDS011;6207;49.308;7.336;2023-03-01T13:57:59;19.33;;;17.97;;
12288;SDS011;6207;49.308;7.336;2023-03-01T14:00:37;22.20;;;20.00;;
12288;SDS011;6207;49.308;7.336;2023-03-01T14:03:13;18.63;;;17.23;;
12288;SDS011;6207;49.308;7.336;2023-03-01T14:05:40;19.73;;;18.20;;
12288;SDS011;6207;49.308;7.336;2023-03-01T14:08:18;21.93;;;19.97;;
12288;SDS011;6207;49.308;7.336;2023-03-01T14:13:23;20.20;;;18.50;;
12288;SDS011;6207;49.308;7.336;2023-03-01T14:19:14;21.20;;;19.40;;
12288;SDS011;6207;49.308;7.336;2023-03-01T14:22:04;20.20;;;18.30;;
12288;SDS011;6207;49.308;7.336;2023-03-01T14:24:52;19.67;;;18.17;;
12288;SDS011;6207;49.308;7.336;2023-03-01T14:27:23;19.07;;;17.27;;
12288;SDS011;6207;49.308;7.336;2023-03-01T14:32:52;21.23;;;19.23;;
12288;SDS011;6207;49.308;7.336;2023-03-01T14:35:24;19.80;;;18.10;;
12288;SDS011;6207;49.308;7.336;2023-03-01T14:37:56;21.93;;;19.83;;
12288;SDS011;6207;49.308;7.336;2023-03-01T14:40:30;21.73;;;19.73;;
12288;SDS011;6207;49.308;7.336;2023-03-01T14:43:00;22.13;;;19.73;;
12288;SDS011;6207;49.308;7.336;2023-03-01T14:45:34;19.87;;;18.17;;
12288;SDS011;6207;49.308;7.336;2023-03-01T14:48:02;22.43;;;20.30;;
12288;SDS011;6207;49.308;7.336;2023-03-01T14:50:32;21.40;;;19.53;;
12288;SDS011;6207;49.308;7.336;2023-03-01T14:53:02;24.67;;;22.37;;
12288;SDS011;6207;49.308;7.336;2023-03-01T14:55:38;21.80;;;19.47;;
12288;SDS011;6207;49.308;7.336;2023-03-01T14:58:14;19.63;;;18.00;;
12288;SDS011;6207;49.308;7.336;2023-03-01T15:00:54;20.33;;;18.50;;
12288;SDS011;6207;49.308;7.336;2023-03-01T15:03:24;21.23;;;19.33;;
12288;SDS011;6207;49.308;7.336;2023-03-01T15:05:52;20.13;;;18.47;;
12288;SDS011;6207;49.308;7.336;2023-03-01T15:08:23;20.90;;;19.07;;
12288;SDS011;6207;49.308;7.336;2023-03-01T15:11:00;23.23;;;21.13;;
12288;SDS011;6207;49.308;7.336;2023-03-01T15:13:40;20.97;;;18.73;;
12288;SDS011;6207;49.308;7.336;2023-03-01T15:18:35;17.97;;;16.47;;
12288;SDS011;6207;49.308;7.336;2023-03-01T15:21:14;18.73;;;17.23;;
12288;SDS011;6207;49.308;7.336;2023-03-01T15:23:47;18.70;;;16.97;;
12288;SDS011;6207;49.308;7.336;2023-03-01T15:26:24;18.50;;;17.10;;
12288;SDS011;6207;49.308;7.336;2023-03-01T15:28:54;20.53;;;18.53;;
12288;SDS011;6207;49.308;7.336;2023-03-01T15:31:34;19.67;;;17.70;;
12288;SDS011;6207;49.308;7.336;2023-03-01T15:34:23;21.00;;;19.30;;
12288;SDS011;6207;49.308;7.336;2023-03-01T15:36:51;22.13;;;18.13;;
12288;SDS011;6207;49.308;7.336;2023-03-01T15:39:32;21.20;;;19.30;;
12288;SDS011;6207;49.308;7.336;2023-03-01T15:44:38;17.97;;;16.47;;
12288;SDS011;6207;49.308;7.336;2023-03-01T15:47:25;19.73;;;17.93;;
12288;SDS011;6207;49.308;7.336;2023-03-01T15:49:54;19.10;;;17.40;;
12288;SDS011;6207;49.308;7.336;2023-03-01T15:52:29;18.00;;;16.57;;
12288;SDS011;6207;49.308;7.336;2023-03-01T15:55:04;19.60;;;17.93;;
12288;SDS011;6207;49.308;7.336;2023-03-01T15:57:42;18.93;;;17.43;;
12288;SDS011;6207;49.308;7.336;2023-03-01T16:00:09;17.47;;;16.07;;
12288;SDS011;6207;49.308;7.336;2023-03-01T16:02:37;18.33;;;16.83;;
12288;SDS011;6207;49.308;7.336;2023-03-01T16:05:04;17.40;;;15.87;;
12288;SDS011;6207;49.308;7.336;2023-03-01T16:07:31;18.43;;;16.93;;
12288;SDS011;6207;49.308;7.336;2023-03-01T16:09:58;19.20;;;17.60;;
12288;SDS011;6207;49.308;7.336;2023-03-01T16:12:24;17.77;;;16.27;;
12288;SDS011;6207;49.308;7.336;2023-03-01T16:14:51;16.63;;;15.33;;
12288;SDS011;6207;49.308;7.336;2023-03-01T16:17:19;18.90;;;17.30;;
12288;SDS011;6207;49.308;7.336;2023-03-01T16:19:45;16.77;;;15.50;;
12288;SDS011;6207;49.308;7.336;2023-03-01T16:22:12;20.03;;;18.43;;
12288;SDS011;6207;49.308;7.336;2023-03-01T16:24:38;16.30;;;15.20;;
12288;SDS011;6207;49.308;7.336;2023-03-01T16:27:06;18.43;;;16.73;;
12288;SDS011;6207;49.308;7.336;2023-03-01T16:29:33;17.63;;;16.07;;
12288;SDS011;6207;49.308;7.336;2023-03-01T16:32:01;17.63;;;16.13;;
12288;SDS011;6207;49.308;7.336;2023-03-01T16:34:28;17.73;;;16.23;;
12288;SDS011;6207;49.308;7.336;2023-03-01T16:36:55;17.83;;;16.33;;
12288;SDS011;6207;49.308;7.336;2023-03-01T16:39:22;18.20;;;16.73;;
12288;SDS011;6207;49.308;7.336;2023-03-01T16:41:48;18.20;;;16.80;;
12288;SDS011;6207;49.308;7.336;2023-03-01T16:44:15;18.53;;;17.13;;
12288;SDS011;6207;49.308;7.336;2023-03-01T16:46:42;17.60;;;16.10;;